Flugplatz Beromuenster (LSZO)

Hier findest Du alle Informationen zum Flugplatz Beromuenster (LSZO).

Informationen für Piloten zum Flugplatz Beromuenster

Hier findest Du alle relevanten Informationen, die Du als Pilot benötigst, um Beromuenster anzufliegen.

Flugplatz: Beromuenster ICAO-Code: LSZO
Frequenz Turm: 122.45 Mhz GAFOR Gebiet: -
Frequenz Ground: 122.45 Mhz Mogas: nein
Platzrunde: N 3200 ft Landegebühr: 11 €
Platzhöhe: - Sunrise: 03:49 Uhr UTC
Pisten: 15/33 - 510 m x 20 m, GRAS Sunset: 19:17 Uhr UTC

Mitglieder, die in Beromuenster fliegen

Flugwetter am Flugplatz Beromuenster

Die METAR Information stammen aus EDTD (90.18 km entfernt).

METAR Code:
2018/05/15 00:00
EDTD 150000Z AUTO 11004KT 070V160 NCD 16/12 Q1014

Flugschulen am Flugplatz Beromuenster

Am Flugplatz Beromuenster gibt es leider keine Flugschule.

Benachbarte Flugplätze und Flugschulen

Es gibt einen weiteren Flugplatz in einem Umkreis von 50 km um den Flugplatz Beromuenster.

Flugplatz Buochs LSZC 28.07 km
Jetzt anmelden

Passwort vergessen

Umfrage Archiv

Werdet Ihr Euer UL im Zuge der 600 kg MTOW auflasten lassen?

Ja, bei Kosten bis max. 5.000 Euro
54 %
Nein
22 %
Ja, unabhängig von den Kosten
10 %
Ja, bei Kosten bis max. 7.500 Euro
8 %
Ja, bei Kosten bis max. 10.000 Euro
6 %
Stimmen: 50 | Diskussion
Anzeige: Roland Aircraft
Statistik Alle Mitglieder

Aktuell sind 30 Besucher online.

Anzeige: VFR Sprechfunk Simulator


Anzeige: Pocket FMS